KBAF/BAF METAR and TAF weather

Enter ICAO airport designator
Station Type Date Time Source
KBAF METAR 2020/04/02 20:53 UTC NOAA

KBAF 022053Z 34029G40KT 10SM OVC045 10/M01 A2956 RMK AO2 PK WND 33041/2033 SLP012 T01001006 57004


Station Type Date Time Source
KBAF Decoded METAR 2020/04/02 20:53 UTC NOAA

WESTFIELD BARNES MUNICIPAL, MA, United States (KBAF) 42-10N 072-43W 83M
Apr 02, 2020 - 04:53 PM EDT / 2020.04.02 2053 UTC
Wind: from the NNW (340 degrees) at 33 MPH (29 KT) gusting to 46 MPH (40 KT):0
Visibility: 10 mile(s):0
Sky conditions: overcast
Temperature: 50.0 F (10.0 C)
Dew Point: 30.9 F (-0.6 C)
Relative Humidity: 47%
Pressure (altimeter): 29.56 in. Hg (1001 hPa)
Pressure tendency: 0.01 inches (0.4 hPa) lower than three hours ago
ob: KBAF 022053Z 34029G40KT 10SM OVC045 10/M01 A2956 RMK AO2 PK WND 33041/2033 SLP012 T01001006 57004
cycle: 21

Station Type Date Time Source
KBAF TAF 2020/04/02 18:36 UTC NOAA

TAF KBAF 021734Z 0218/0318 33022G32KT P6SM BKN045
FM022000 33019G31KT P6SM OVC050
FM030000 33019G29KT 6SM -RA BR OVC025
FM030700 35013G23KT 5SM -RA BR OVC020
FM031200 36013G23KT 5SM -RA BR OVC015
FM031700 01015G24KT P6SM VCSH OVC015

Example: see airport list